Time;durP1;ratioP1;P1;durP2;ratioP2;P2;SDS_P1;SDS_P2;PMS_P1;PMS_P2;Temp;Humidity;BMP_temperature;BMP_pressure;BME280_temperature;BME280_humidity;BME280_pressure;Samples;Min_cycle;Max_cycle;Signal;HPM_P1;HPM_P2
2022/05/18 00:02:06;;;;;;;9.93;9.43;;;;;;;;;;10423855;28;20256;-73
2022/05/18 00:07:07;;;;;;;11.25;10.38;;;;;;;;;;10415675;28;20218;-73
2022/05/18 00:12:08;;;;;;;11.48;10.55;;;;;;;;;;10417114;28;20199;-74
2022/05/18 00:17:10;;;;;;;11.90;10.27;;;;;;;;;;10415737;28;20202;-72
2022/05/18 00:22:12;;;;;;;11.75;10.85;;;;;;;;;;10423550;28;20219;-72
2022/05/18 00:27:13;;;;;;;11.50;10.70;;;;;;;;;;10434825;28;20581;-73
2022/05/18 00:32:14;;;;;;;11.32;10.32;;;;;;;;;;10426737;28;21038;-73
2022/05/18 00:37:15;;;;;;;10.68;9.93;;;;;;;;;;10401596;28;20190;-73
2022/05/18 00:42:20;;;;;;;11.68;10.75;;;;;;;;;;10423800;28;20225;-72
2022/05/18 00:47:21;;;;;;;11.68;10.55;;;;;;;;;;10442963;28;20198;-73
2022/05/18 00:52:25;;;;;;;11.20;10.45;;;;;;;;;;10409238;28;20206;-73
2022/05/18 00:57:28;;;;;;;9.02;8.23;;;;;;;;;;10414556;28;20199;-76
2022/05/18 01:02:30;;;;;;;10.05;9.38;;;;;;;;;;10416007;28;20698;-73
2022/05/18 01:07:36;;;;;;;7.57;6.80;;;;;;;;;;10424781;28;20275;-73
2022/05/18 01:12:37;;;;;;;8.20;7.75;;;;;;;;;;10418867;28;20198;-73
2022/05/18 01:17:39;;;;;;;9.55;9.02;;;;;;;;;;10447455;28;20202;-74
2022/05/18 01:22:46;;;;;;;14.60;13.25;;;;;;;;;;10400374;28;20209;-73
2022/05/18 01:27:49;;;;;;;14.13;12.60;;;;;;;;;;10445288;28;20218;-74
2022/05/18 01:32:52;;;;;;;17.65;15.70;;;;;;;;;;10391864;28;20215;-73
2022/05/18 01:37:59;;;;;;;16.60;15.02;;;;;;;;;;10381749;28;20202;-73
2022/05/18 01:43:10;;;;;;;18.38;16.10;;;;;;;;;;10428513;28;20238;-73
2022/05/18 01:48:15;;;;;;;16.35;14.63;;;;;;;;;;10434747;28;20199;-73
2022/05/18 01:53:17;;;;;;;19.65;17.83;;;;;;;;;;10398471;28;20226;-73
2022/05/18 01:58:18;;;;;;;22.30;19.77;;;;;;;;;;10385248;28;20300;-73
2022/05/18 02:03:20;;;;;;;21.02;19.08;;;;;;;;;;10399014;28;20242;-73
2022/05/18 02:08:22;;;;;;;21.33;19.20;;;;;;;;;;10427011;28;20237;-73
2022/05/18 02:13:23;;;;;;;21.08;18.98;;;;;;;;;;10419902;28;20194;-73
2022/05/18 02:18:24;;;;;;;20.17;18.48;;;;;;;;;;10442816;28;20230;-73
2022/05/18 02:23:25;;;;;;;17.58;15.90;;;;;;;;;;10426318;28;20214;-73
2022/05/18 02:28:26;;;;;;;19.38;17.55;;;;;;;;;;10401747;28;20881;-73
2022/05/18 02:33:28;;;;;;;20.52;18.58;;;;;;;;;;10409683;28;20301;-73
2022/05/18 02:38:29;;;;;;;19.42;17.75;;;;;;;;;;10436827;28;20198;-73
2022/05/18 02:43:30;;;;;;;20.80;18.83;;;;;;;;;;10430324;28;20208;-73
2022/05/18 02:48:31;;;;;;;19.77;17.95;;;;;;;;;;10430803;28;20213;-73
2022/05/18 02:53:32;;;;;;;19.05;17.33;;;;;;;;;;10455479;28;20327;-74
2022/05/18 02:58:33;;;;;;;17.95;16.33;;;;;;;;;;10426145;28;20198;-73
2022/05/18 03:03:36;;;;;;;17.65;16.05;;;;;;;;;;10436138;28;20242;-73
2022/05/18 03:08:38;;;;;;;16.88;15.30;;;;;;;;;;10442330;28;20205;-73
2022/05/18 03:13:39;;;;;;;18.27;16.42;;;;;;;;;;10444872;28;20229;-74
2022/05/18 03:18:40;;;;;;;16.00;14.70;;;;;;;;;;10457320;28;20209;-73
2022/05/18 03:23:42;;;;;;;15.95;14.73;;;;;;;;;;10409351;28;20216;-74
2022/05/18 03:28:44;;;;;;;15.13;13.93;;;;;;;;;;10446599;28;21189;-73
2022/05/18 03:33:45;;;;;;;16.65;15.40;;;;;;;;;;10411512;28;20218;-73
2022/05/18 03:38:47;;;;;;;17.90;16.10;;;;;;;;;;10424999;28;20202;-73
2022/05/18 03:43:48;;;;;;;16.98;15.23;;;;;;;;;;10439338;28;20214;-73
2022/05/18 03:48:49;;;;;;;17.13;15.50;;;;;;;;;;10408003;28;20202;-73
2022/05/18 03:53:51;;;;;;;16.77;15.18;;;;;;;;;;10460823;28;20206;-73
2022/05/18 03:58:52;;;;;;;17.00;15.60;;;;;;;;;;10417706;28;20194;-73
2022/05/18 04:03:54;;;;;;;17.80;16.15;;;;;;;;;;10427660;28;20985;-73
2022/05/18 04:08:55;;;;;;;19.50;17.80;;;;;;;;;;10442551;28;20682;-73
2022/05/18 04:13:56;;;;;;;16.92;15.52;;;;;;;;;;10447218;28;20289;-73
2022/05/18 04:18:57;;;;;;;18.85;17.30;;;;;;;;;;10458606;28;20297;-73
2022/05/18 04:23:58;;;;;;;18.40;16.75;;;;;;;;;;10456161;28;20249;-73
2022/05/18 04:28:59;;;;;;;19.25;17.63;;;;;;;;;;10429424;28;20714;-73
2022/05/18 04:34:00;;;;;;;17.50;15.80;;;;;;;;;;10440034;28;20210;-78
2022/05/18 04:39:01;;;;;;;18.08;16.67;;;;;;;;;;10409304;28;20189;-77
2022/05/18 04:44:02;;;;;;;18.08;16.48;;;;;;;;;;10430849;28;20220;-77
2022/05/18 04:49:03;;;;;;;20.77;18.88;;;;;;;;;;10423242;28;20207;-77
2022/05/18 04:54:05;;;;;;;19.90;18.25;;;;;;;;;;10414976;28;20213;-77
2022/05/18 04:59:06;;;;;;;20.05;18.35;;;;;;;;;;10437166;28;20678;-77
2022/05/18 05:04:09;;;;;;;17.13;15.52;;;;;;;;;;10428626;28;20321;-77
2022/05/18 05:09:10;;;;;;;18.35;16.67;;;;;;;;;;10443638;28;20202;-77
2022/05/18 05:14:12;;;;;;;18.40;16.88;;;;;;;;;;10421838;28;20256;-77
2022/05/18 05:19:13;;;;;;;18.13;15.43;;;;;;;;;;10423605;28;20198;-77
2022/05/18 05:24:16;;;;;;;17.10;15.50;;;;;;;;;;10449853;28;20237;-77
2022/05/18 05:29:17;;;;;;;17.67;16.30;;;;;;;;;;10440441;28;20200;-77
2022/05/18 05:34:18;;;;;;;18.65;16.88;;;;;;;;;;10448126;28;20467;-77
2022/05/18 05:39:20;;;;;;;16.77;15.48;;;;;;;;;;10420184;28;20209;-77
2022/05/18 05:44:21;;;;;;;17.40;15.90;;;;;;;;;;10417396;28;20581;-77
2022/05/18 05:49:23;;;;;;;17.02;15.77;;;;;;;;;;10428143;28;20198;-77
2022/05/18 05:54:26;;;;;;;19.05;17.35;;;;;;;;;;10391482;28;20321;-77
2022/05/18 05:59:27;;;;;;;16.58;15.18;;;;;;;;;;10430463;28;20737;-77
2022/05/18 06:04:29;;;;;;;18.48;16.98;;;;;;;;;;10440029;28;20233;-77
2022/05/18 06:09:31;;;;;;;18.33;16.63;;;;;;;;;;10413956;28;20336;-78
2022/05/18 06:14:32;;;;;;;17.48;15.90;;;;;;;;;;10407041;28;20213;-78
2022/05/18 06:19:34;;;;;;;18.38;16.73;;;;;;;;;;10400381;28;20202;-78
2022/05/18 06:24:35;;;;;;;19.92;18.05;;;;;;;;;;10411535;28;20210;-78
2022/05/18 06:29:37;;;;;;;19.38;16.73;;;;;;;;;;10377139;28;20203;-77
2022/05/18 06:34:38;;;;;;;19.23;17.42;;;;;;;;;;10397703;28;20210;-77
2022/05/18 06:39:40;;;;;;;19.63;17.85;;;;;;;;;;10392110;28;20268;-78
2022/05/18 06:44:41;;;;;;;20.38;18.45;;;;;;;;;;10422060;28;20207;-76
2022/05/18 06:49:42;;;;;;;19.42;17.52;;;;;;;;;;10406172;28;20194;-76
2022/05/18 06:54:43;;;;;;;19.48;17.75;;;;;;;;;;10420200;28;20199;-79
2022/05/18 06:59:44;;;;;;;19.45;17.92;;;;;;;;;;10430456;28;20218;-78
2022/05/18 07:04:45;;;;;;;20.10;18.50;;;;;;;;;;10419896;28;20289;-79
2022/05/18 07:09:46;;;;;;;20.13;18.30;;;;;;;;;;10437796;28;20280;-79
2022/05/18 07:14:47;;;;;;;18.65;17.13;;;;;;;;;;10445215;28;20201;-79
2022/05/18 07:19:48;;;;;;;19.42;17.67;;;;;;;;;;10429795;28;20579;-79
2022/05/18 07:24:50;;;;;;;20.02;18.15;;;;;;;;;;10430639;28;20339;-79
2022/05/18 07:29:51;;;;;;;20.13;18.13;;;;;;;;;;10400982;28;20210;-74
2022/05/18 07:34:52;;;;;;;21.00;18.90;;;;;;;;;;10415207;28;20225;-74
2022/05/18 07:39:53;;;;;;;21.05;19.13;;;;;;;;;;10433577;28;20222;-75
2022/05/18 07:44:54;;;;;;;19.92;18.20;;;;;;;;;;10401412;28;20207;-75
2022/05/18 07:49:55;;;;;;;26.10;19.33;;;;;;;;;;10403346;28;20198;-74
2022/05/18 07:54:57;;;;;;;21.23;19.05;;;;;;;;;;10423263;28;20330;-76
2022/05/18 07:59:59;;;;;;;19.38;17.35;;;;;;;;;;10408896;28;20205;-76
2022/05/18 08:05:00;;;;;;;18.73;17.08;;;;;;;;;;10407767;28;21081;-73
2022/05/18 08:15:23;;;;;;;18.10;16.70;;;;;;;;;;10429425;28;20199;-73
2022/05/18 08:20:25;;;;;;;18.27;16.67;;;;;;;;;;10403438;28;20227;-73
2022/05/18 08:25:26;;;;;;;17.33;15.93;;;;;;;;;;10417949;28;20209;-73
2022/05/18 08:30:30;;;;;;;22.65;17.00;;;;;;;;;;10412525;28;20244;-73
2022/05/18 08:35:31;;;;;;;22.80;20.60;;;;;;;;;;10391973;28;20280;-73
2022/05/18 08:40:32;;;;;;;16.17;14.63;;;;;;;;;;10415347;28;20207;-73
2022/05/18 08:45:36;;;;;;;15.65;14.40;;;;;;;;;;10396030;28;20260;-73
2022/05/18 08:50:38;;;;;;;15.82;14.43;;;;;;;;;;10409641;28;20223;-72
2022/05/18 08:55:44;;;;;;;16.98;15.40;;;;;;;;;;10410338;28;20279;-75
2022/05/18 09:00:49;;;;;;;18.90;16.63;;;;;;;;;;10398754;28;20785;-73
2022/05/18 09:05:58;;;;;;;17.15;15.50;;;;;;;;;;10384129;28;20223;-73
2022/05/18 09:11:03;;;;;;;17.77;16.05;;;;;;;;;;10396439;28;20195;-74
2022/05/18 09:16:07;;;;;;;16.40;14.70;;;;;;;;;;10439414;28;20202;-73
2022/05/18 09:21:27;;;;;;;16.08;14.45;;;;;;;;;;10427690;28;20210;-73
2022/05/18 09:26:42;;;;;;;16.30;14.93;;;;;;;;;;10417183;28;20929;-76
2022/05/18 09:32:01;;;;;;;16.77;15.15;;;;;;;;;;10417811;28;20219;-75
2022/05/18 09:37:23;;;;;;;15.07;13.70;;;;;;;;;;10417720;28;20201;-76
2022/05/18 09:42:27;;;;;;;14.80;13.43;;;;;;;;;;10418227;28;20355;-77
2022/05/18 09:47:30;;;;;;;14.95;13.55;;;;;;;;;;10450546;28;20198;-76
2022/05/18 09:52:32;;;;;;;15.00;13.68;;;;;;;;;;10393302;28;20190;-76
2022/05/18 09:57:43;;;;;;;14.30;13.10;;;;;;;;;;10428912;28;20197;-77
2022/05/18 10:08:09;;;;;;;9.43;8.23;;;;;;;;;;10405046;28;20257;-78
2022/05/18 10:13:12;;;;;;;11.30;10.40;;;;;;;;;;10415951;28;20195;-77
2022/05/18 10:18:16;;;;;;;7.90;7.30;;;;;;;;;;10388660;28;20259;-77
2022/05/18 10:23:36;;;;;;;7.43;7.03;;;;;;;;;;10400900;28;20214;-77
2022/05/18 10:28:41;;;;;;;6.63;6.13;;;;;;;;;;10420514;28;20195;-77
2022/05/18 10:33:42;;;;;;;5.22;4.90;;;;;;;;;;10403297;28;20301;-77
2022/05/18 10:38:51;;;;;;;8.73;6.05;;;;;;;;;;10393317;28;20203;-77
2022/05/18 10:43:55;;;;;;;4.88;4.68;;;;;;;;;;10372135;28;20206;-76
2022/05/18 10:48:58;;;;;;;6.32;4.57;;;;;;;;;;10402314;28;20198;-77
2022/05/18 10:54:08;;;;;;;5.53;4.40;;;;;;;;;;10398425;28;20243;-76
2022/05/18 10:59:19;;;;;;;7.65;4.63;;;;;;;;;;10412227;28;20203;-77
2022/05/18 11:04:27;;;;;;;5.70;5.40;;;;;;;;;;10398541;28;20686;-77
2022/05/18 11:09:29;;;;;;;6.00;5.53;;;;;;;;;;10427392;28;20249;-76
2022/05/18 11:14:38;;;;;;;6.03;5.22;;;;;;;;;;10417441;28;20201;-77
2022/05/18 11:19:58;;;;;;;4.97;4.60;;;;;;;;;;10404165;28;20195;-77
2022/05/18 11:25:08;;;;;;;5.95;5.45;;;;;;;;;;10418736;28;20206;-77
2022/05/18 11:30:17;;;;;;;5.05;4.80;;;;;;;;;;10439290;28;20682;-77
2022/05/18 11:35:29;;;;;;;7.03;5.93;;;;;;;;;;10434513;28;20221;-77
2022/05/18 11:40:33;;;;;;;6.22;5.75;;;;;;;;;;10423322;28;20929;-78
2022/05/18 11:45:37;;;;;;;6.78;6.00;;;;;;;;;;10411120;28;20203;-77
2022/05/18 11:50:49;;;;;;;6.07;5.57;;;;;;;;;;10437196;28;20206;-77
2022/05/18 11:55:57;;;;;;;6.93;6.50;;;;;;;;;;10439793;28;20198;-77
2022/05/18 12:01:05;;;;;;;6.68;6.28;;;;;;;;;;10430038;28;20219;-77
2022/05/18 12:06:15;;;;;;;6.22;5.65;;;;;;;;;;10439574;28;20239;-77
2022/05/18 12:11:26;;;;;;;5.65;5.30;;;;;;;;;;10435332;28;21255;-78
2022/05/18 12:16:33;;;;;;;5.65;5.25;;;;;;;;;;10408565;28;20218;-78
2022/05/18 12:21:36;;;;;;;8.07;5.55;;;;;;;;;;10425273;28;20329;-79
2022/05/18 12:26:44;;;;;;;7.53;6.10;;;;;;;;;;10445757;28;20199;-78
2022/05/18 12:31:46;;;;;;;5.43;5.05;;;;;;;;;;10452201;28;20211;-78
2022/05/18 12:36:47;;;;;;;7.82;5.38;;;;;;;;;;10443096;28;20205;-78
2022/05/18 12:41:54;;;;;;;5.97;5.53;;;;;;;;;;10428807;28;20217;-77
2022/05/18 12:46:58;;;;;;;5.72;5.35;;;;;;;;;;10428983;28;20285;-78
2022/05/18 12:52:03;;;;;;;6.32;4.97;;;;;;;;;;10441200;28;20320;-76
2022/05/18 12:57:07;;;;;;;5.07;4.60;;;;;;;;;;10435679;28;20333;-77
2022/05/18 13:02:16;;;;;;;4.43;4.10;;;;;;;;;;10427288;28;20222;-77
2022/05/18 13:07:24;;;;;;;7.63;5.88;;;;;;;;;;10407656;28;20299;-77
2022/05/18 13:12:26;;;;;;;5.32;5.03;;;;;;;;;;10449752;28;21129;-78
2022/05/18 13:17:46;;;;;;;5.25;4.38;;;;;;;;;;10396106;28;20233;-77
2022/05/18 13:22:49;;;;;;;6.07;5.55;;;;;;;;;;10433712;28;20316;-77
2022/05/18 13:27:55;;;;;;;4.22;4.03;;;;;;;;;;10430714;28;20226;-77
2022/05/18 13:32:56;;;;;;;5.00;4.60;;;;;;;;;;10435558;28;20218;-79
2022/05/18 13:38:09;;;;;;;4.70;4.20;;;;;;;;;;10448434;28;20190;-77
2022/05/18 13:43:12;;;;;;;3.47;3.30;;;;;;;;;;10410084;28;21492;-77
2022/05/18 13:48:14;;;;;;;3.78;2.83;;;;;;;;;;10396954;28;20199;-77
2022/05/18 13:53:19;;;;;;;3.70;3.50;;;;;;;;;;10413669;28;20625;-78
2022/05/18 13:58:21;;;;;;;4.70;3.30;;;;;;;;;;10441671;28;20230;-78
2022/05/18 14:03:23;;;;;;;5.45;3.50;;;;;;;;;;10424372;28;20239;-78
2022/05/18 14:08:24;;;;;;;3.65;3.53;;;;;;;;;;10396371;28;20206;-78
2022/05/18 14:13:26;;;;;;;3.80;2.92;;;;;;;;;;10441613;28;20874;-78
2022/05/18 14:18:32;;;;;;;3.10;2.90;;;;;;;;;;10443219;28;20187;-78
2022/05/18 14:23:37;;;;;;;3.42;2.50;;;;;;;;;;10416952;28;20221;-77
2022/05/18 14:28:42;;;;;;;2.47;2.38;;;;;;;;;;10398375;28;20190;-77
2022/05/18 14:33:48;;;;;;;2.45;2.28;;;;;;;;;;10414956;28;20215;-78
2022/05/18 14:38:50;;;;;;;7.40;3.00;;;;;;;;;;10444811;28;20202;-78
2022/05/18 14:44:00;;;;;;;3.83;3.53;;;;;;;;;;10443549;28;20204;-77
2022/05/18 14:49:12;;;;;;;2.75;2.72;;;;;;;;;;10415625;28;20344;-79
2022/05/18 14:54:15;;;;;;;4.00;3.80;;;;;;;;;;10434682;28;20198;-79
2022/05/18 14:59:18;;;;;;;4.20;2.50;;;;;;;;;;10406236;28;20186;-79
2022/05/18 15:04:28;;;;;;;3.10;2.90;;;;;;;;;;10435121;28;20933;-77
2022/05/18 15:09:49;;;;;;;2.65;2.55;;;;;;;;;;10440199;28;20217;-78
2022/05/18 15:14:57;;;;;;;2.53;2.40;;;;;;;;;;10444166;28;20189;-79
2022/05/18 15:20:19;;;;;;;3.17;2.47;;;;;;;;;;10384275;28;20205;-78
2022/05/18 15:25:29;;;;;;;2.58;2.47;;;;;;;;;;10430199;28;20201;-76
2022/05/18 15:30:30;;;;;;;2.60;2.50;;;;;;;;;;10426723;28;20585;-77
2022/05/18 15:35:31;;;;;;;4.30;2.67;;;;;;;;;;10424584;28;20197;-77
2022/05/18 15:40:32;;;;;;;2.80;2.60;;;;;;;;;;10421125;28;20214;-77
2022/05/18 15:45:34;;;;;;;2.97;2.88;;;;;;;;;;10390351;28;20213;-77
2022/05/18 15:50:40;;;;;;;2.88;2.67;;;;;;;;;;10392744;28;20206;-77
2022/05/18 15:55:45;;;;;;;2.65;2.45;;;;;;;;;;10395647;28;20202;-77
2022/05/18 16:00:46;;;;;;;3.90;2.10;;;;;;;;;;10378207;28;20306;-78
2022/05/18 16:05:47;;;;;;;2.40;2.30;;;;;;;;;;10379046;28;20226;-78
2022/05/18 16:10:49;;;;;;;4.93;2.40;;;;;;;;;;10362632;28;20218;-78
2022/05/18 16:15:51;;;;;;;2.13;2.13;;;;;;;;;;10406101;28;23752;-78
2022/05/18 16:20:56;;;;;;;2.00;1.90;;;;;;;;;;10349025;28;20211;-78
2022/05/18 16:25:58;;;;;;;2.80;2.70;;;;;;;;;;10401196;28;20194;-78
2022/05/18 16:31:00;;;;;;;4.40;2.38;;;;;;;;;;10405080;28;20325;-78
2022/05/18 16:36:02;;;;;;;2.30;2.20;;;;;;;;;;10386713;28;20223;-78
2022/05/18 16:41:03;;;;;;;2.65;2.45;;;;;;;;;;10387866;28;20297;-78
2022/05/18 16:46:06;;;;;;;6.43;2.20;;;;;;;;;;10379699;28;20207;-78
2022/05/18 16:51:07;;;;;;;2.30;2.10;;;;;;;;;;10389703;28;20592;-78
2022/05/18 16:56:10;;;;;;;2.25;2.10;;;;;;;;;;10384764;28;20206;-77
2022/05/18 17:01:11;;;;;;;2.35;1.95;;;;;;;;;;10385281;28;20255;-78
2022/05/18 17:06:12;;;;;;;3.28;2.38;;;;;;;;;;10424666;28;20241;-77
2022/05/18 17:11:13;;;;;;;4.32;3.40;;;;;;;;;;10418922;28;20230;-77
2022/05/18 17:16:17;;;;;;;6.72;6.18;;;;;;;;;;10410931;28;20222;-77
2022/05/18 17:21:19;;;;;;;2.72;2.60;;;;;;;;;;10416403;28;21246;-76
2022/05/18 17:26:26;;;;;;;2.60;2.50;;;;;;;;;;10430626;28;20261;-77
2022/05/18 17:31:27;;;;;;;2.55;2.45;;;;;;;;;;10421661;28;20210;-76
2022/05/18 17:36:29;;;;;;;2.28;2.22;;;;;;;;;;10426495;28;20209;-76
2022/05/18 17:41:31;;;;;;;2.75;2.55;;;;;;;;;;10413439;28;20221;-76
2022/05/18 17:46:33;;;;;;;2.25;2.22;;;;;;;;;;10411107;28;20202;-76
2022/05/18 17:51:34;;;;;;;2.17;2.08;;;;;;;;;;10431031;28;20285;-76
2022/05/18 17:56:36;;;;;;;3.42;2.33;;;;;;;;;;10465161;28;20214;-77
2022/05/18 18:01:38;;;;;;;2.50;2.35;;;;;;;;;;10447894;28;20268;-76
2022/05/18 18:06:40;;;;;;;2.55;2.30;;;;;;;;;;10441569;28;20242;-76
2022/05/18 18:11:41;;;;;;;2.45;2.40;;;;;;;;;;10423995;28;20187;-77
2022/05/18 18:16:43;;;;;;;4.38;2.78;;;;;;;;;;10408498;28;20198;-77
2022/05/18 18:21:44;;;;;;;3.28;3.08;;;;;;;;;;10431832;28;20222;-76
2022/05/18 18:26:45;;;;;;;2.70;2.55;;;;;;;;;;10430654;28;20199;-76
2022/05/18 18:31:47;;;;;;;4.15;2.60;;;;;;;;;;10434831;28;20209;-76
2022/05/18 18:36:53;;;;;;;2.88;2.60;;;;;;;;;;10439301;28;20697;-76
2022/05/18 18:41:54;;;;;;;2.70;2.50;;;;;;;;;;10420863;28;20210;-76
2022/05/18 18:46:55;;;;;;;3.17;2.45;;;;;;;;;;10441123;28;20740;-76
2022/05/18 18:57:22;;;;;;;3.80;2.58;;;;;;;;;;10432167;28;20224;-76
2022/05/18 19:02:25;;;;;;;2.50;2.40;;;;;;;;;;10437145;28;20225;-73
2022/05/18 19:07:26;;;;;;;2.65;2.50;;;;;;;;;;10448366;28;20230;-74
2022/05/18 19:12:29;;;;;;;3.88;2.33;;;;;;;;;;10442305;28;20907;-73
2022/05/18 19:17:31;;;;;;;2.85;2.35;;;;;;;;;;10449359;28;20236;-73
2022/05/18 19:22:33;;;;;;;4.80;2.90;;;;;;;;;;10437626;28;20222;-73
2022/05/18 19:27:35;;;;;;;2.83;2.55;;;;;;;;;;10464322;28;20938;-74
2022/05/18 19:32:37;;;;;;;4.03;2.45;;;;;;;;;;10386333;28;20218;-73
2022/05/18 19:37:38;;;;;;;3.22;3.08;;;;;;;;;;10428002;28;20206;-73
2022/05/18 19:42:42;;;;;;;2.83;2.67;;;;;;;;;;10417798;28;20235;-74
2022/05/18 19:47:44;;;;;;;3.20;3.10;;;;;;;;;;10431938;28;20257;-73
2022/05/18 19:52:45;;;;;;;5.18;2.83;;;;;;;;;;10442595;28;20201;-73
2022/05/18 19:57:51;;;;;;;4.35;2.92;;;;;;;;;;10418089;28;20206;-73
2022/05/18 20:02:53;;;;;;;3.70;3.53;;;;;;;;;;10447363;28;20222;-73
2022/05/18 20:07:55;;;;;;;7.90;3.88;;;;;;;;;;10434576;28;20210;-72
2022/05/18 20:12:59;;;;;;;3.03;2.83;;;;;;;;;;10407951;28;20191;-71
2022/05/18 20:18:03;;;;;;;3.35;3.15;;;;;;;;;;10436376;28;20206;-73
2022/05/18 20:23:05;;;;;;;3.53;3.30;;;;;;;;;;10468976;28;20730;-74
2022/05/18 20:28:10;;;;;;;3.55;3.28;;;;;;;;;;10408865;28;20196;-73
2022/05/18 20:33:14;;;;;;;3.80;3.53;;;;;;;;;;10419572;28;20229;-73
2022/05/18 20:38:16;;;;;;;4.53;4.22;;;;;;;;;;10407149;28;20218;-73
2022/05/18 20:43:20;;;;;;;4.05;3.85;;;;;;;;;;10440127;28;20779;-75
2022/05/18 20:48:26;;;;;;;5.13;4.72;;;;;;;;;;10426585;28;20212;-73
2022/05/18 20:53:30;;;;;;;6.63;5.68;;;;;;;;;;10405866;28;20260;-75
2022/05/18 20:58:32;;;;;;;4.90;4.50;;;;;;;;;;10440058;28;20245;-74
2022/05/18 21:03:33;;;;;;;7.32;4.50;;;;;;;;;;10428046;28;20226;-74
2022/05/18 21:08:38;;;;;;;5.30;4.38;;;;;;;;;;10434732;28;20209;-74
2022/05/18 21:13:39;;;;;;;4.22;3.63;;;;;;;;;;10383564;28;20226;-75
2022/05/18 21:18:40;;;;;;;3.78;3.58;;;;;;;;;;10443714;28;21006;-74
2022/05/18 21:23:41;;;;;;;4.10;3.78;;;;;;;;;;10416441;28;20284;-74
2022/05/18 21:28:43;;;;;;;3.80;3.60;;;;;;;;;;10401796;28;20195;-75
2022/05/18 21:33:44;;;;;;;4.65;4.28;;;;;;;;;;10424285;28;20214;-74
2022/05/18 21:38:47;;;;;;;4.35;3.95;;;;;;;;;;10386881;28;20202;-73
2022/05/18 21:43:50;;;;;;;4.60;4.18;;;;;;;;;;10396188;28;20750;-73
2022/05/18 21:48:51;;;;;;;4.50;4.32;;;;;;;;;;10393414;28;20250;-73
2022/05/18 21:53:52;;;;;;;4.90;4.60;;;;;;;;;;10422928;28;20198;-73
2022/05/18 21:58:53;;;;;;;4.85;4.43;;;;;;;;;;10432896;28;20206;-73
2022/05/18 22:03:55;;;;;;;4.15;4.00;;;;;;;;;;10418120;28;20233;-73
2022/05/18 22:08:56;;;;;;;5.07;4.75;;;;;;;;;;10434045;28;20202;-73
2022/05/18 22:14:06;;;;;;;5.80;5.30;;;;;;;;;;10402383;28;20194;-73
2022/05/18 22:19:23;;;;;;;5.95;5.50;;;;;;;;;;10445456;28;20891;-74
2022/05/18 22:24:24;;;;;;;5.35;4.90;;;;;;;;;;10426202;28;20209;-73
2022/05/18 22:29:31;;;;;;;5.97;5.47;;;;;;;;;;10448128;28;20217;-73
2022/05/18 22:34:32;;;;;;;6.03;5.57;;;;;;;;;;10414283;28;20729;-73
2022/05/18 22:39:33;;;;;;;6.05;5.70;;;;;;;;;;10431996;28;20202;-73
2022/05/18 22:44:36;;;;;;;6.43;6.03;;;;;;;;;;10414461;28;20209;-73
2022/05/18 22:49:37;;;;;;;7.70;6.75;;;;;;;;;;10439250;28;20224;-73
2022/05/18 22:54:38;;;;;;;7.63;6.93;;;;;;;;;;10398779;28;20523;-73
2022/05/18 22:59:39;;;;;;;7.53;6.82;;;;;;;;;;10432505;28;20208;-73
2022/05/18 23:04:41;;;;;;;8.43;7.78;;;;;;;;;;10402931;28;20363;-73
2022/05/18 23:09:42;;;;;;;8.15;7.35;;;;;;;;;;10431075;28;20193;-74
2022/05/18 23:14:43;;;;;;;9.07;8.23;;;;;;;;;;10451229;28;20205;-73
2022/05/18 23:19:48;;;;;;;9.27;8.38;;;;;;;;;;10438248;28;20217;-74
2022/05/18 23:24:50;;;;;;;9.45;8.68;;;;;;;;;;10417907;28;21073;-73
2022/05/18 23:29:51;;;;;;;11.05;8.55;;;;;;;;;;10440111;28;20212;-74
2022/05/18 23:34:52;;;;;;;11.32;10.18;;;;;;;;;;10442146;28;20210;-74
2022/05/18 23:39:53;;;;;;;10.60;9.75;;;;;;;;;;10433317;28;20218;-73
2022/05/18 23:45:00;;;;;;;9.88;8.98;;;;;;;;;;10400708;28;20307;-73
2022/05/18 23:50:01;;;;;;;10.60;9.43;;;;;;;;;;10438393;28;20199;-72
2022/05/18 23:55:02;;;;;;;10.85;9.82;;;;;;;;;;10420592;28;20214;-72
